Wetterdaten: Woche 29.09.14 - 05.10.14 (KW40)
Datum Zeit Temp. A. Feuchte A. Luftdruck Regen Wind Richtung Taupunkt Windchill Windben
29.09.2014 00:00 9,5 C 85 % 1026,0 hPa 0,0 l/m 0,0 km/h N 7,1 C 9,5 C 0,0 km/h
29.09.2014 01:00 8,9 C 84 % 1026,1 hPa 0,0 l/m 0,0 km/h N 6,3 C 8,9 C 0,0 km/h
29.09.2014 02:00 8,3 C 84 % 1025,7 hPa 0,0 l/m 0,0 km/h N 5,8 C 8,3 C 0,0 km/h
29.09.2014 03:00 7,9 C 83 % 1025,5 hPa 0,0 l/m 0,0 km/h N 5,2 C 7,9 C 0,4 km/h
29.09.2014 04:00 9,0 C 82 % 1025,8 hPa 0,0 l/m 0,0 km/h N 6,1 C 9,0 C 2,0 km/h
29.09.2014 05:00 9,0 C 82 % 1025,9 hPa 0,0 l/m 0,3 km/h N 6,1 C 9,0 C 2,0 km/h
29.09.2014 06:00 9,0 C 81 % 1026,1 hPa 0,3 l/m 0,6 km/h N 5,9 C 9,0 C 5,6 km/h
29.09.2014 07:00 9,4 C 81 % 1026,6 hPa 0,0 l/m 0,0 km/h N 6,3 C 9,4 C 0,0 km/h
29.09.2014 08:00 10,3 C 79 % 1027,0 hPa 0,0 l/m 0,1 km/h N 6,7 C 10,3 C 1,2 km/h
29.09.2014 09:00 12,6 C 78 % 1027,3 hPa 0,0 l/m 1,1 km/h N 8,8 C 12,6 C 4,4 km/h
29.09.2014 10:00 13,9 C 82 % 1027,7 hPa 0,0 l/m 1,8 km/h N 10,8 C 13,9 C 7,2 km/h
29.09.2014 11:00 14,6 C 84 % 1027,8 hPa 0,0 l/m 0,8 km/h N 11,9 C 14,6 C 5,6 km/h
29.09.2014 12:00 15,3 C 83 % 1027,7 hPa 0,0 l/m 1,5 km/h N 12,4 C 15,3 C 6,4 km/h
29.09.2014 13:00 16,1 C 81 % 1027,2 hPa 0,0 l/m 1,5 km/h N 12,8 C 16,1 C 6,8 km/h
29.09.2014 14:00 17,0 C 79 % 1026,4 hPa 0,0 l/m 0,6 km/h N 13,3 C 17,0 C 2,8 km/h
29.09.2014 15:00 18,4 C 78 % 1025,7 hPa 0,0 l/m 0,7 km/h N 14,4 C 18,4 C 6,8 km/h
29.09.2014 16:00 19,6 C 75 % 1025,0 hPa 0,0 l/m 1,9 km/h N 15,0 C 19,6 C 7,6 km/h
29.09.2014 17:00 19,8 C 75 % 1024,7 hPa 0,0 l/m 0,3 km/h N 15,2 C 19,8 C 4,4 km/h
29.09.2014 18:00 19,1 C 76 % 1024,8 hPa 0,0 l/m 0,0 km/h N 14,8 C 19,1 C 0,0 km/h
29.09.2014 19:00 16,8 C 81 % 1025,0 hPa 0,0 l/m 0,0 km/h N 13,4 C 16,8 C 0,0 km/h
29.09.2014 20:00 14,8 C 84 % 1025,1 hPa 0,0 l/m 0,0 km/h N 12,0 C 14,8 C 0,4 km/h
29.09.2014 21:00 13,4 C 84 % 1025,0 hPa 0,0 l/m 0,0 km/h N 10,8 C 13,4 C 0,0 km/h
29.09.2014 22:00 13,1 C 83 % 1025,1 hPa 0,0 l/m 0,0 km/h N 10,3 C 13,1 C 2,0 km/h
29.09.2014 23:00 12,6 C 83 % 1025,0 hPa 0,0 l/m 0,0 km/h N 9,8 C 12,6 C 0,4 km/h
30.09.2014 00:00 11,5 C 83 % 1024,9 hPa 0,0 l/m 0,0 km/h N 8,6 C 11,5 C 0,8 km/h
30.09.2014 01:00 10,9 C 83 % 1025,0 hPa 0,0 l/m 0,0 km/h N 8,1 C 10,9 C 0,4 km/h
30.09.2014 02:00 10,0 C 83 % 1025,0 hPa 0,0 l/m 0,0 km/h N 7,3 C 10,0 C 0,0 km/h
30.09.2014 03:00 11,0 C 81 % 1025,2 hPa 0,3 l/m 1,5 km/h N 7,8 C 11,0 C 5,6 km/h
30.09.2014 04:00 12,1 C 80 % 1025,2 hPa 0,0 l/m 0,4 km/h N 8,8 C 12,1 C 2,8 km/h
30.09.2014 05:00 12,3 C 79 % 1025,2 hPa 0,0 l/m 0,0 km/h N 8,8 C 12,3 C 0,0 km/h
30.09.2014 06:00 12,6 C 79 % 1025,1 hPa 0,0 l/m 0,3 km/h N 9,0 C 12,6 C 2,4 km/h
30.09.2014 07:00 12,8 C 79 % 1025,5 hPa 0,0 l/m 0,0 km/h N 9,2 C 12,8 C 0,8 km/h
30.09.2014 08:00 13,2 C 78 % 1025,9 hPa 0,0 l/m 0,3 km/h N 9,4 C 13,2 C 2,8 km/h
30.09.2014 09:00 13,8 C 78 % 1026,1 hPa 0,0 l/m 1,3 km/h N 10,0 C 13,8 C 6,4 km/h
30.09.2014 10:00 14,4 C 79 % 1026,0 hPa 0,0 l/m 1,1 km/h N 10,7 C 14,4 C 6,4 km/h
30.09.2014 11:00 15,2 C 81 % 1025,7 hPa 0,0 l/m 0,4 km/h N 11,8 C 15,2 C 4,0 km/h
30.09.2014 12:00 16,1 C 84 % 1025,6 hPa 0,0 l/m 1,0 km/h N 13,5 C 16,1 C 6,8 km/h
30.09.2014 13:00 17,4 C 83 % 1025,3 hPa 0,0 l/m 0,6 km/h N 14,4 C 17,4 C 5,6 km/h
30.09.2014 14:00 18,2 C 81 % 1025,2 hPa 0,0 l/m 1,0 km/h N 14,7 C 18,2 C 6,0 km/h
30.09.2014 15:00 18,3 C 80 % 1024,8 hPa 0,0 l/m 1,1 km/h N 14,7 C 18,3 C 6,4 km/h
30.09.2014 16:00 18,4 C 80 % 1024,4 hPa 0,0 l/m 0,6 km/h N 14,8 C 18,4 C 5,2 km/h
30.09.2014 17:00 17,8 C 81 % 1024,5 hPa 0,0 l/m 0,5 km/h N 14,4 C 17,8 C 4,4 km/h
30.09.2014 18:00 16,9 C 82 % 1024,6 hPa 0,0 l/m 0,2 km/h N 13,8 C 16,9 C 2,0 km/h
30.09.2014 19:00 15,2 C 82 % 1024,8 hPa 0,0 l/m 0,0 km/h N 12,2 C 15,2 C 0,0 km/h
30.09.2014 20:00 14,2 C 84 % 1024,8 hPa 0,0 l/m 0,0 km/h N 11,5 C 14,2 C 0,0 km/h
30.09.2014 21:00 14,0 C 84 % 1024,8 hPa 0,0 l/m 0,0 km/h N 11,3 C 14,0 C 0,4 km/h
30.09.2014 22:00 14,0 C 83 % 1024,8 hPa 0,0 l/m 0,1 km/h N 11,2 C 14,0 C 0,8 km/h
30.09.2014 23:00 13,9 C 82 % 1024,7 hPa 0,0 l/m 0,0 km/h N 10,9 C 13,9 C 0,0 km/h
01.10.2014 00:00 13,4 C 82 % 1024,4 hPa 0,0 l/m 0,0 km/h N 10,4 C 13,4 C 0,0 km/h
01.10.2014 01:00 13,4 C 82 % 1024,4 hPa 0,0 l/m 0,0 km/h N 10,4 C 13,4 C 0,0 km/h
01.10.2014 02:00 13,3 C 81 % 1024,4 hPa 0,0 l/m 0,0 km/h N 10,1 C 13,3 C 0,0 km/h
01.10.2014 03:00 13,4 C 81 % 1024,4 hPa 0,0 l/m 0,0 km/h N 10,2 C 13,4 C 0,0 km/h
01.10.2014 04:00 13,4 C 80 % 1024,4 hPa 0,0 l/m 0,0 km/h N 10,1 C 13,4 C 0,0 km/h
01.10.2014 05:00 13,4 C 80 % 1024,6 hPa 0,0 l/m 0,0 km/h N 10,0 C 13,4 C 0,0 km/h
01.10.2014 06:00 13,6 C 80 % 1024,3 hPa 0,0 l/m 0,1 km/h N 10,1 C 13,6 C 0,8 km/h
01.10.2014 07:00 13,9 C 79 % 1024,3 hPa 0,3 l/m 0,0 km/h N 10,3 C 13,9 C 0,4 km/h
01.10.2014 08:00 14,5 C 78 % 1024,8 hPa 0,0 l/m 0,0 km/h N 10,7 C 14,5 C 0,0 km/h
01.10.2014 09:00 15,2 C 77 % 1024,6 hPa 0,0 l/m 1,1 km/h N 11,2 C 15,2 C 4,0 km/h
01.10.2014 10:00 16,4 C 77 % 1024,8 hPa 0,0 l/m 1,8 km/h N 12,2 C 16,4 C 7,2 km/h
01.10.2014 11:00 17,1 C 77 % 1025,2 hPa 0,0 l/m 0,1 km/h N 13,1 C 17,1 C 2,0 km/h
01.10.2014 12:00 17,5 C 80 % 1025,0 hPa 0,0 l/m 0,5 km/h N 14,0 C 17,5 C 4,0 km/h
01.10.2014 13:00 18,5 C 84 % 1024,5 hPa 0,0 l/m 1,6 km/h N 15,7 C 18,5 C 7,2 km/h
01.10.2014 14:00 18,7 C 83 % 1024,3 hPa 0,0 l/m 0,8 km/h N 15,7 C 18,7 C 5,2 km/h
01.10.2014 15:00 18,5 C 84 % 1024,2 hPa 0,3 l/m 0,0 km/h N 15,7 C 18,5 C 0,0 km/h
01.10.2014 16:00 17,9 C 84 % 1024,5 hPa 2,1 l/m 0,5 km/h N 15,1 C 17,9 C 2,8 km/h
01.10.2014 17:00 16,9 C 83 % 1025,0 hPa 7,0 l/m 0,4 km/h N 14,0 C 16,9 C 3,6 km/h
01.10.2014 18:00 14,9 C 83 % 1025,2 hPa 10,1 l/m 0,6 km/h N 12,1 C 14,9 C 4,4 km/h
01.10.2014 19:00 14,6 C 83 % 1025,2 hPa 0,8 l/m 0,1 km/h N 11,7 C 14,6 C 1,2 km/h
01.10.2014 20:00 14,5 C 82 % 1025,1 hPa 0,5 l/m 0,0 km/h N 11,5 C 14,5 C 0,0 km/h
01.10.2014 21:00 14,4 C 81 % 1025,1 hPa 0,0 l/m 0,0 km/h N 11,2 C 14,4 C 0,0 km/h
01.10.2014 22:00 14,3 C 81 % 1025,1 hPa 0,3 l/m 0,0 km/h N 11,1 C 14,3 C 0,0 km/h
01.10.2014 23:00 14,3 C 80 % 1025,2 hPa 0,0 l/m 0,0 km/h N 11,0 C 14,3 C 0,0 km/h
02.10.2014 00:00 14,5 C 80 % 1025,2 hPa 0,3 l/m 0,0 km/h N 11,1 C 14,5 C 0,0 km/h
02.10.2014 01:00 14,6 C 80 % 1025,3 hPa 0,8 l/m 0,0 km/h N 11,2 C 14,6 C 0,0 km/h
02.10.2014 02:00 14,7 C 79 % 1025,6 hPa 0,0 l/m 0,0 km/h N 11,0 C 14,7 C 0,0 km/h
02.10.2014 03:00 14,6 C 79 % 1025,7 hPa 0,0 l/m 0,0 km/h N 11,0 C 14,6 C 0,8 km/h
02.10.2014 04:00 14,3 C 79 % 1025,8 hPa 0,0 l/m 0,5 km/h N 10,8 C 14,3 C 3,6 km/h
02.10.2014 05:00 14,4 C 78 % 1025,9 hPa 0,0 l/m 2,5 km/h N 10,6 C 14,4 C 8,9 km/h
02.10.2014 06:00 14,4 C 78 % 1026,2 hPa 0,0 l/m 1,8 km/h N 10,6 C 14,4 C 8,8 km/h
02.10.2014 07:00 14,4 C 79 % 1026,7 hPa 0,0 l/m 1,7 km/h N 10,8 C 14,4 C 8,1 km/h
02.10.2014 08:00 14,8 C 80 % 1027,1 hPa 0,0 l/m 2,8 km/h N 11,2 C 14,8 C 10,9 km/h
02.10.2014 09:00 14,9 C 82 % 1027,6 hPa 0,0 l/m 4,0 km/h N 11,9 C 14,9 C 12,9 km/h
02.10.2014 10:00 15,6 C 84 % 1027,6 hPa 0,0 l/m 5,1 km/h N 12,9 C 15,6 C 16,5 km/h
02.10.2014 11:00 16,1 C 81 % 1027,6 hPa 0,3 l/m 6,3 km/h N 12,9 C 16,1 C 20,5 km/h
02.10.2014 12:00 17,1 C 78 % 1027,3 hPa 0,0 l/m 6,4 km/h N 13,3 C 17,0 C 19,3 km/h
02.10.2014 13:00 18,1 C 72 % 1027,1 hPa 0,0 l/m 6,6 km/h N 12,9 C 17,9 C 18,9 km/h
02.10.2014 14:00 18,3 C 69 % 1026,9 hPa 0,0 l/m 6,8 km/h N 12,5 C 18,0 C 17,7 km/h
02.10.2014 15:00 18,4 C 70 % 1026,7 hPa 0,0 l/m 7,3 km/h N 12,7 C 18,0 C 19,3 km/h
02.10.2014 16:00 18,2 C 73 % 1026,4 hPa 0,0 l/m 4,3 km/h N 13,1 C 18,2 C 16,9 km/h
02.10.2014 17:00 17,7 C 74 % 1026,3 hPa 0,0 l/m 3,3 km/h N 13,0 C 17,7 C 12,9 km/h
02.10.2014 18:00 16,8 C 75 % 1026,6 hPa 0,0 l/m 0,9 km/h N 12,4 C 16,8 C 6,1 km/h
02.10.2014 19:00 15,2 C 80 % 1026,9 hPa 0,0 l/m 0,3 km/h N 11,7 C 15,2 C 2,4 km/h
02.10.2014 20:00 15,1 C 81 % 1027,0 hPa 0,0 l/m 1,3 km/h N 11,7 C 15,1 C 7,2 km/h
02.10.2014 21:00 15,2 C 79 % 1027,2 hPa 0,0 l/m 1,1 km/h N 11,5 C 15,2 C 6,0 km/h
02.10.2014 22:00 14,7 C 80 % 1027,2 hPa 0,0 l/m 1,3 km/h N 11,3 C 14,7 C 6,8 km/h
02.10.2014 23:00 13,9 C 82 % 1027,2 hPa 0,0 l/m 0,4 km/h N 10,9 C 13,9 C 2,0 km/h
03.10.2014 00:00 13,0 C 84 % 1027,1 hPa 0,0 l/m 0,3 km/h N 10,4 C 13,0 C 2,4 km/h
03.10.2014 01:00 13,6 C 84 % 1026,9 hPa 0,0 l/m 1,2 km/h N 11,0 C 13,6 C 6,0 km/h
03.10.2014 02:00 14,1 C 84 % 1026,5 hPa 0,0 l/m 1,3 km/h N 11,5 C 14,1 C 6,8 km/h
03.10.2014 03:00 13,8 C 85 % 1026,3 hPa 0,0 l/m 0,9 km/h N 11,3 C 13,8 C 5,2 km/h
03.10.2014 04:00 13,4 C 84 % 1026,2 hPa 0,0 l/m 0,9 km/h N 10,8 C 13,4 C 6,0 km/h
03.10.2014 05:00 13,7 C 84 % 1026,0 hPa 0,0 l/m 0,8 km/h N 11,0 C 13,7 C 5,2 km/h
03.10.2014 06:00 13,8 C 84 % 1026,1 hPa 0,0 l/m 1,3 km/h N 11,2 C 13,8 C 6,0 km/h
03.10.2014 07:00 13,9 C 85 % 1026,3 hPa 0,0 l/m 1,0 km/h N 11,4 C 13,9 C 6,0 km/h
03.10.2014 08:00 14,1 C 85 % 1026,5 hPa 0,0 l/m 2,1 km/h N 11,5 C 14,1 C 8,9 km/h
03.10.2014 09:00 14,5 C 83 % 1026,7 hPa 0,0 l/m 1,7 km/h N 11,6 C 14,5 C 7,6 km/h
03.10.2014 10:00 15,1 C 80 % 1026,5 hPa 0,0 l/m 3,2 km/h N 11,6 C 15,1 C 10,9 km/h
03.10.2014 11:00 16,4 C 76 % 1026,0 hPa 0,0 l/m 3,3 km/h N 12,1 C 16,4 C 12,9 km/h
03.10.2014 12:00 17,2 C 71 % 1025,6 hPa 0,0 l/m 4,3 km/h N 11,8 C 17,2 C 14,1 km/h
03.10.2014 13:00 17,5 C 69 % 1025,2 hPa 0,0 l/m 3,9 km/h N 11,7 C 17,5 C 12,9 km/h
03.10.2014 14:00 17,6 C 69 % 1024,9 hPa 0,0 l/m 4,4 km/h N 11,8 C 17,6 C 14,5 km/h
03.10.2014 15:00 17,5 C 66 % 1024,5 hPa 0,0 l/m 4,7 km/h N 11,0 C 17,5 C 16,5 km/h
03.10.2014 16:00 17,7 C 62 % 1024,2 hPa 0,0 l/m 3,4 km/h N 10,2 C 17,7 C 12,9 km/h
03.10.2014 17:00 17,3 C 62 % 1024,0 hPa 0,0 l/m 2,4 km/h N 9,8 C 17,3 C 11,3 km/h
03.10.2014 18:00 16,4 C 68 % 1024,0 hPa 0,0 l/m 0,6 km/h N 10,4 C 16,4 C 4,4 km/h
03.10.2014 19:00 14,2 C 76 % 1024,1 hPa 0,0 l/m 0,0 km/h N 10,0 C 14,2 C 0,0 km/h
03.10.2014 20:00 12,9 C 81 % 1024,3 hPa 0,0 l/m 0,3 km/h N 9,7 C 12,9 C 2,0 km/h
03.10.2014 21:00 12,9 C 83 % 1024,5 hPa 0,0 l/m 2,3 km/h N 10,1 C 12,9 C 8,1 km/h
03.10.2014 22:00 12,1 C 83 % 1024,6 hPa 0,0 l/m 1,4 km/h N 9,2 C 12,1 C 6,8 km/h
03.10.2014 23:00 11,1 C 84 % 1024,4 hPa 0,0 l/m 0,6 km/h N 8,4 C 11,1 C 3,6 km/h
04.10.2014 00:00 10,4 C 85 % 1024,2 hPa 0,0 l/m 0,5 km/h N 8,0 C 10,4 C 3,6 km/h
04.10.2014 01:00 9,7 C 85 % 1024,1 hPa 0,0 l/m 0,1 km/h N 7,3 C 9,7 C 2,0 km/h
04.10.2014 02:00 10,6 C 84 % 1023,8 hPa 0,0 l/m 1,1 km/h N 8,0 C 10,6 C 5,6 km/h
04.10.2014 03:00 10,9 C 85 % 1023,3 hPa 0,0 l/m 3,0 km/h N 8,4 C 10,9 C 9,3 km/h
04.10.2014 04:00 10,9 C 85 % 1023,0 hPa 0,0 l/m 2,4 km/h N 8,5 C 10,9 C 7,6 km/h
04.10.2014 05:00 10,9 C 85 % 1022,7 hPa 0,0 l/m 1,8 km/h N 8,5 C 10,9 C 6,8 km/h
04.10.2014 06:00 10,9 C 85 % 1022,6 hPa 0,0 l/m 1,8 km/h N 8,5 C 10,9 C 7,2 km/h
04.10.2014 07:00 10,9 C 85 % 1022,6 hPa 0,0 l/m 0,6 km/h N 8,5 C 10,9 C 4,0 km/h
04.10.2014 08:00 11,1 C 85 % 1022,6 hPa 0,0 l/m 0,2 km/h N 8,7 C 11,1 C 1,6 km/h
04.10.2014 09:00 11,8 C 85 % 1022,6 hPa 0,0 l/m 1,1 km/h N 9,3 C 11,8 C 4,8 km/h
04.10.2014 10:00 13,0 C 83 % 1022,4 hPa 0,0 l/m 0,8 km/h N 10,2 C 13,0 C 4,8 km/h
04.10.2014 11:00 14,6 C 78 % 1022,1 hPa 0,0 l/m 1,4 km/h N 10,8 C 14,6 C 7,2 km/h
04.10.2014 12:00 15,2 C 78 % 1021,8 hPa 0,0 l/m 1,5 km/h N 11,3 C 15,2 C 8,1 km/h
04.10.2014 13:00 15,7 C 78 % 1021,3 hPa 0,0 l/m 1,3 km/h N 11,8 C 15,7 C 7,6 km/h
04.10.2014 14:00 15,2 C 80 % 1020,9 hPa 0,0 l/m 1,4 km/h N 11,7 C 15,2 C 8,4 km/h
04.10.2014 15:00 14,9 C 82 % 1020,7 hPa 0,0 l/m 0,8 km/h N 11,8 C 14,9 C 7,2 km/h
04.10.2014 16:00 14,9 C 81 % 1020,3 hPa 0,0 l/m 1,3 km/h N 11,6 C 14,9 C 8,4 km/h
04.10.2014 17:00 15,0 C 79 % 1020,0 hPa 0,0 l/m 2,0 km/h N 11,3 C 15,0 C 8,9 km/h
04.10.2014 18:00 14,6 C 81 % 1020,0 hPa 0,0 l/m 0,9 km/h N 11,3 C 14,6 C 7,6 km/h
04.10.2014 19:00 14,0 C 83 % 1020,1 hPa 0,0 l/m 0,3 km/h N 11,1 C 14,0 C 5,2 km/h
04.10.2014 20:00 13,8 C 84 % 1020,2 hPa 0,0 l/m 0,4 km/h N 11,1 C 13,8 C 3,6 km/h
04.10.2014 21:00 13,4 C 85 % 1020,3 hPa 0,0 l/m 0,4 km/h N 10,9 C 13,4 C 4,0 km/h
04.10.2014 22:00 13,0 C 85 % 1020,2 hPa 0,0 l/m 0,6 km/h N 10,5 C 13,0 C 5,6 km/h
04.10.2014 23:00 12,9 C 84 % 1019,8 hPa 0,0 l/m 0,5 km/h N 10,3 C 12,9 C 4,0 km/h
05.10.2014 00:00 12,8 C 84 % 1019,3 hPa 0,0 l/m 0,3 km/h N 10,1 C 12,8 C 4,0 km/h
05.10.2014 01:00 12,3 C 84 % 1019,0 hPa 0,0 l/m 0,1 km/h N 9,7 C 12,3 C 2,0 km/h
05.10.2014 02:00 11,6 C 84 % 1018,8 hPa 0,0 l/m 0,0 km/h N 9,0 C 11,6 C 0,0 km/h
05.10.2014 03:00 11,7 C 83 % 1018,5 hPa 0,0 l/m 0,6 km/h N 8,9 C 11,7 C 4,8 km/h
05.10.2014 04:00 11,0 C 83 % 1018,3 hPa 0,0 l/m 0,0 km/h N 8,2 C 11,0 C 0,0 km/h
05.10.2014 05:00 9,9 C 84 % 1018,2 hPa 0,0 l/m 0,0 km/h N 7,3 C 9,9 C 0,0 km/h
05.10.2014 06:00 9,1 C 84 % 1018,3 hPa 0,0 l/m 0,0 km/h N 6,5 C 9,1 C 0,0 km/h
05.10.2014 07:00 9,1 C 83 % 1018,5 hPa 0,0 l/m 0,0 km/h N 6,3 C 9,1 C 0,0 km/h
05.10.2014 08:00 10,0 C 81 % 1018,7 hPa 0,0 l/m 0,0 km/h N 7,0 C 10,0 C 0,4 km/h
05.10.2014 09:00 12,6 C 82 % 1018,8 hPa 0,0 l/m 3,5 km/h N 9,6 C 12,6 C 9,7 km/h
05.10.2014 10:00 14,6 C 81 % 1018,9 hPa 0,0 l/m 3,2 km/h N 11,4 C 14,6 C 10,5 km/h
05.10.2014 11:00 16,8 C 73 % 1018,8 hPa 0,0 l/m 3,5 km/h N 11,9 C 16,8 C 14,5 km/h
05.10.2014 12:00 18,0 C 68 % 1018,5 hPa 0,0 l/m 4,6 km/h N 12,0 C 18,0 C 17,3 km/h
05.10.2014 13:00 18,3 C 65 % 1018,2 hPa 0,0 l/m 3,5 km/h N 11,5 C 18,3 C 15,3 km/h
05.10.2014 14:00 17,2 C 68 % 1018,0 hPa 0,0 l/m 4,0 km/h N 11,1 C 17,2 C 17,7 km/h
05.10.2014 15:00 17,1 C 68 % 1017,9 hPa 0,0 l/m 4,9 km/h N 11,2 C 17,1 C 19,3 km/h
05.10.2014 16:00 16,7 C 72 % 1017,8 hPa 0,0 l/m 4,4 km/h N 11,5 C 16,7 C 17,3 km/h
05.10.2014 17:00 16,0 C 76 % 1017,9 hPa 0,0 l/m 2,2 km/h N 11,8 C 16,0 C 12,5 km/h
05.10.2014 18:00 15,0 C 79 % 1018,1 hPa 0,0 l/m 1,0 km/h N 11,3 C 15,0 C 8,9 km/h
05.10.2014 19:00 13,9 C 81 % 1018,3 hPa 0,0 l/m 0,6 km/h N 10,7 C 13,9 C 6,4 km/h
05.10.2014 20:00 12,6 C 81 % 1018,6 hPa 0,0 l/m 0,0 km/h N 9,5 C 12,6 C 0,0 km/h
05.10.2014 21:00 10,9 C 83 % 1018,7 hPa 0,0 l/m 0,0 km/h N 8,1 C 10,9 C 0,0 km/h
05.10.2014 22:00 9,7 C 84 % 1018,7 hPa 0,0 l/m 0,0 km/h N 7,1 C 9,7 C 0,4 km/h
05.10.2014 23:00 8,7 C 85 % 1018,6 hPa 0,0 l/m 0,0 km/h N 6,3 C 8,7 C 0,4 km/h
Min-Datum _ 29.09.14 03.10.14 05.10.14 - 29.09.14 - 29.09.14 29.09.14 29.09.14
_ Min-Zeit 03:15 16:15 16:15 - 00:00 - 03:30 03:15 00:00
Minimum _ 7,8 C 59 % 1017,8 hPa - 0,0 km/h - 5,1 C 7,8 C 0,0 km/h
Max-Datum _ 29.09.14 29.09.14 29.09.14 01.10.14 02.10.14 - 01.10.14 29.09.14 05.10.14
_ Max-Zeit 16:45 00:00 11:30 18:00 15:00 - 13:45 16:45 15:45
Maximum _ 19,8 C 85 % 1027,9 hPa 10,1 l/m 8,8 km/h
N
- 16,0 C 19,8 C 25,7 km/h
N
Durchschnitt _ 14,2 C 80 % 1024,0 hPa #23,1 l/m 1,2 km/h N 10,8 C 14,2 C 5,4 km/h